メインページ
METAR-TAF:

METAR-TAF

空港 :

クライストチャーチ国際空港

クライストチャーチ, ニュージーランド

緯度: 43-29S, 経度: 172-33E, 海抜: 38m

現時点の気象観測

当レポートは22分前の06:30(UTC)に作成
東/北東の風 8kt
気温 9°C
湿度 81%
気圧 1002 hPa
視程10km以上

METAR: NZCH 150630Z AUTO 06008KT 9999 NCD 09/06 Q1002 NOSIG

時間: 18:52 (06:52 UTC)

予報

当レポートは1時間48分前の05:04(UTC)に作成
予報は15日の 06時(UTC)から 16日の 06時(UTC)まで有効
北/北東の風 5kt
視程10km以上
1,500メートル以下は雲なし、積乱雲なし
確率 30%
15日の 09時(UTC)から 15日の 12時(UTC)まで
高度1400ftの千切れ雲あり
確率 30%
15日の 15時(UTC)から 15日の 19時(UTC)まで
視程: 2000m
15日の 21時(UTC)から 15日の 23時(UTC)まで徐々に
北/北東の風 15kt

TAF: NZCH 150504Z 1506/1606 02005KT CAVOK PROB30 1509/1512 BKN014 PROB30 1515/1519 2000 BR BECMG 1521/1523 03015KT

4,000以上の空港の気象観測と天気予報(METAR報とTAF報)

利用可能な観測所は地図上に黄色い丸と赤い丸で示す。

丸の上にカーソルを重ねると観測所名を参照できる。

次にクリックすると気象観測と天気予報を参照できる。

マップの切り替え:黒色「×」印の緑ボタンをクリックして拡大、「-」印の緑ボタンをクリックして縮小、緑色の三角印をクリックして隣りの地図に切り替え


METAR-TAF: